AirNav   Everest Fuels
 
 1145 users online  

3VA8 Garner Airport
Windsor, Virginia, USA

GOING TO WINDSOR?


FAA INFORMATION EFFECTIVE 26 JANUARY 2023

Location

FAA Identifier: 3VA8
Lat/Long: 36-51-22.5370N 076-40-55.8410W
36-51.375617N 076-40.930683W
36.8562603,-76.6821781
(estimated)
Elevation: 80 ft. / 24.4 m (surveyed)
Variation: 09W (1985)
From city: 5 miles NE of WINDSOR, VA
Time zone: UTC -5 (UTC -4 during Daylight Saving Time)
Zip code: 23487

Airport Operations

Airport use: Private use. Permission required prior to landing
Activation date: 06/1970
Control tower: no
ARTCC: WASHINGTON CENTER
FSS: LEESBURG FLIGHT SERVICE STATION
Attendance: UNATNDD
Wind indicator: yes
Segmented circle: no

Airport Communications

WX AWOS-3 at SFQ (11 nm S): 119.375 (757-934-3942)
WX AWOS-3PT at PVG (12 nm E): 118.375 (757-465-2175)
WX AWOS-3PT at FKN (14 nm SW): 124.675 (757-562-8765)
WX ASOS at AKQ (17 nm NW): 128.325 (757-899-2300)
WX ASOS at PHF (19 nm NE): PHONE 757-874-3682

Nearby radio navigation aids

VOR radial/distance  VOR name  Freq  Var
FKNr071/18.0FRANKLIN VORTAC110.6009W
ORFr272/23.2NORFOLK VORTAC116.9007W
CVIr026/30.4COFIELD VORTAC114.6009W
HPWr150/35.1HOPEWELL VORTAC112.0006W
HCMr185/35.6HARCUM VORTAC108.8007W

 
NDB name  Hdg/Dist  Freq  Var  ID
WAKEFIELD127/17.127411WAKQ .- -.- --.-

Airport Services

Airframe service: NONE
Powerplant service: NONE

Runway Information

Runway N/S

Dimensions: 2600 x 75 ft. / 792 x 23 m
Surface: turf
RUNWAY N  RUNWAY S
Traffic pattern: leftleft

Airport Ownership and Management from official FAA records

Ownership: Privately-owned
Owner: TIDEWATER SOARING FOUNDATION
1400 MAQRUDER RD
SMITHFIELD, VA 23430
Phone 757-357-2360
Manager: WILLIAM E. LAINE, JR
1400 MAQRUDER RD
SMITHFIELD, VA 23430
Phone 757-357-2360
WEEKENDS ONLY.

Airport Operational Statistics

Aircraft based on the field: 27
Single engine airplanes: 2
Gliders airplanes: 25
    

Additional Remarks

GLDR OPS ON WKENDS. 123.3
TO OBTAIN LNDG PMSN CALL W.E. LAINE, JR., 757-377-6174 (NIGHTS & WKENDS & DAYS).
FOR CD CTC NORFOLK APCH AT 757-464-0757.

Instrument Procedures

There are no published instrument procedures at 3VA8.

Some nearby airports with instrument procedures:

KSFQ - Suffolk Executive Airport (11 nm S)
KPVG - Hampton Roads Executive Airport (12 nm E)
KFKN - Franklin Regional Airport (14 nm SW)
KFAF - Felker Army Airfield (17 nm N)
KAKQ - Wakefield Municipal Airport (17 nm NW)
KPHF - Newport News/Williamsburg International Airport (19 nm NE)
KNHU - Norfolk Naval Station Airport (19 nm E)
KNGU - Norfolk Naval Station (Chambers Field) (19 nm E)
 
Loc | Ops | Rwys | IFR | FBO | Links
Com | Nav | Svcs | Stats | Notes
Area around 3VA8 (Garner Airport)
 
Road maps at: MapQuest Bing Google
 
Aerial photo
WARNING: Photo may not be current or correct
Aerial photo of 3VA8 (Garner Airport)
Photo taken 01-May-2018
looking west.

Do you have a better or more recent aerial photo of Garner Airport that you would like to share? If so, please send us your photo.

 
Sectional chart

 
Airport distance calculator
Flying to Garner Airport? Find the distance to fly.

From to 3VA8

Sunrise and sunset
Times for 04-Feb-2023
 Local
(UTC-5)
 Zulu
(UTC)
Morning civil twilight06:4011:40
Sunrise07:0712:07
Sunset17:3422:34
Evening civil twilight18:0123:01

Current date and time
Zulu (UTC)  04-Feb-2023 22:42:09
Local (UTC-5)  04-Feb-2023 17:42:09
 
METAR
KSFQ 
11nm S 
042215Z AUTO 19005KT 10SM CLR 01/M14 A3057 RMK AO2 T00121138
KPVG 
12nm E 
042156Z AUTO 18004KT 10SM CLR 01/M14 A3058 RMK AO2 SLP355 T00061139 FZRANO PNO $
KFKN 
14nm SW 
042215Z AUTO 17007KT 10SM CLR 01/M17 A3057 RMK AO2 T00101173
KFAF 
16nm N 
042155Z AUTO 14008KT 10SM CLR 01/M13 A3052 RMK AO2 SLP339 T00061128 $
KAKQ 
17nm NW 
042154Z AUTO 20006KT 10SM CLR 02/M17 A3054 RMK AO2 SLP346 T00221167
KPHF 
19nm NE 
042154Z 12008KT 10SM CLR M01/M11 A3056 RMK AO2 SLP347 T10061106
KLFI 
20nm NE 
042155Z 08005KT 10SM FEW230 M01/M08 A3056 RMK AO2A SLP355 T10091081 $
KNGU 
20nm E 
042159Z 19008KT 10SM FEW260 02/M15 A3057 RMK AO2 SLP351 T00171150
KCPK 
21nm SE 
042215Z AUTO 17005KT 10SM CLR 00/M14 A3057 RMK AO2 T00031139
TAF
KFAF 
16nm N 
040300Z 0403/0509 34012KT 9999 SKC QNH3045INS BECMG 0421/0422 20010G15KT 9999 SKC QNH3049INS TX01/0421Z TNM07/0410Z LAST NO AMDS AFT 0404 NEXT 0611
KPHF 
19nm NE 
041759Z 0418/0518 16007KT P6SM SCT250 FM050500 20007KT P6SM BKN250 FM051500 21008KT P6SM BKN050 OVC200
KLFI 
20nm NE 
041800Z 0418/0524 08006KT 9999 FEW220 QNH3063INS BECMG 0500/0501 20012G18KT 9999 FEW200 QNH3053INS BECMG 0515/0516 20010KT 9999 FEW150 SCT210 QNH3038INS BECMG 0518/0519 21008KT 9999 FEW020 SCT040 QNH3020INS TX11/0518Z TNM02/0418Z
NOTAMs
Click for the latest NOTAMs
NOTAMs are issued by the DoD/FAA and will open in a separate window not controlled by AirNav.

 

 
 

Would you like to see your business listed on this page?

 If your business provides an interesting product or service to pilots, flight crews, aircraft, or users of the Garner Airport, you should consider listing it here.  To start the listing process, click on the button below
 
Add a business
 

Other Pages about Garner Airport

Update a link
 
Copyright © AirNav, LLC. All rights reserved. Privacy Policy  Contact